DWD Radarbild

   
[Quelle: ADDS]
METAR
EDLP 202150Z 12005KT CAVOK 10/04 Q1025 =
EDLP 201700Z 2018/2118 11005KT CAVOK BECMG 2107/2110 13010KT
TAF
EDLP 201700Z 2018/2118 11005KT CAVOK BECMG 2107/2110 13010KT =
   
   

Meine WettercamWettercam aus Bielefeld Senne - Blickrichtung Süd-Ost

   
Moon phase
Phase:
Abnehmend

Mondphase:
60%

Alter:
21 Tage

Entfernung:
237,970 Km

Zeit:
05:49:04

Datum:
21-09-2019

   
<<  Sep 2019  >>
 Mo  Di  Mi  Do  Fr  Sa  So 
        1
  2  3  4  5  6  7  8
  9101112131415
16171819202122
23242526272829
30